createdAt,value
2022-12-24T00:00:48.971Z,19.49
2022-12-24T00:03:21.695Z,19.48
2022-12-24T00:05:54.381Z,19.47
2022-12-24T00:08:27.051Z,19.47
2022-12-24T00:10:59.770Z,19.45
2022-12-24T00:13:32.727Z,19.46
2022-12-24T00:16:06.379Z,19.44
2022-12-24T00:18:45.510Z,19.43
2022-12-24T00:21:18.647Z,19.37
2022-12-24T00:23:51.323Z,19.38
2022-12-24T00:26:24.017Z,19.42
2022-12-24T00:28:56.687Z,19.37
2022-12-24T00:31:29.483Z,19.37
2022-12-24T00:34:02.063Z,19.36
2022-12-24T00:36:34.622Z,19.34
2022-12-24T00:39:07.307Z,19.33
2022-12-24T00:41:39.980Z,19.37
2022-12-24T00:44:12.794Z,19.34
2022-12-24T00:46:45.443Z,19.32
2022-12-24T00:49:18.268Z,19.27
2022-12-24T00:51:51.204Z,19.27
2022-12-24T00:54:23.865Z,19.28
2022-12-24T00:56:56.512Z,19.29
2022-12-24T00:59:29.023Z,19.28
2022-12-24T01:02:01.613Z,19.26
2022-12-24T01:04:53.220Z,19.28
2022-12-24T01:07:25.814Z,19.28
2022-12-24T01:09:58.501Z,19.26
2022-12-24T01:12:31.319Z,19.21
2022-12-24T01:15:05.243Z,19.22
2022-12-24T01:17:39.063Z,19.23
2022-12-24T01:20:17.207Z,19.19
2022-12-24T01:22:49.842Z,19.21
2022-12-24T01:25:22.438Z,19.19
2022-12-24T01:27:55.132Z,19.16
2022-12-24T01:30:27.685Z,19.19
2022-12-24T01:33:00.487Z,19.17
2022-12-24T01:35:33.279Z,19.18
2022-12-24T01:38:05.946Z,19.11
2022-12-24T01:40:59.872Z,19.16
2022-12-24T01:43:33.562Z,19.20
2022-12-24T01:46:23.744Z,19.23
2022-12-24T01:49:02.014Z,19.14
2022-12-24T01:51:46.829Z,19.15
2022-12-24T01:54:31.173Z,19.13
2022-12-24T01:57:34.544Z,19.28
2022-12-24T02:00:12.626Z,19.10
2022-12-24T02:02:49.928Z,19.09
2022-12-24T02:05:36.932Z,19.15
2022-12-24T02:08:09.678Z,19.07
2022-12-24T02:10:42.552Z,19.06
2022-12-24T02:13:20.686Z,19.05
2022-12-24T02:16:31.683Z,19.15
2022-12-24T02:19:47.297Z,19.18
2022-12-24T02:23:21.061Z,19.16
2022-12-24T02:26:17.766Z,19.09
2022-12-24T02:29:18.829Z,19.04
2022-12-24T02:32:07.691Z,19.12
2022-12-24T02:34:47.906Z,19.04
2022-12-24T02:37:37.827Z,19.01
2022-12-24T02:40:16.989Z,18.99
2022-12-24T02:42:57.616Z,18.97
2022-12-24T02:45:35.499Z,18.98
2022-12-24T02:48:12.995Z,18.97
2022-12-24T02:51:15.051Z,19.17
2022-12-24T02:53:47.667Z,18.97
2022-12-24T02:56:45.409Z,19.10
2022-12-24T03:00:09.232Z,19.07
2022-12-24T03:03:19.435Z,19.09
2022-12-24T03:06:45.825Z,18.98
2022-12-24T03:09:55.474Z,19.02
2022-12-24T03:12:41.503Z,18.97
2022-12-24T03:15:18.684Z,18.94
2022-12-24T03:17:57.638Z,18.94
2022-12-24T03:20:45.255Z,19.00
2022-12-24T03:23:18.127Z,18.92
2022-12-24T03:25:51.325Z,18.88
2022-12-24T03:28:28.083Z,18.87
2022-12-24T03:31:04.886Z,18.88
2022-12-24T03:33:37.812Z,18.89
2022-12-24T03:36:10.930Z,18.86
2022-12-24T03:38:43.756Z,18.85
2022-12-24T03:41:16.445Z,18.83
2022-12-24T03:43:49.132Z,18.86
2022-12-24T03:46:21.865Z,18.87
2022-12-24T03:48:54.843Z,18.83
2022-12-24T03:51:28.394Z,18.86
2022-12-24T03:54:02.334Z,18.87
2022-12-24T03:56:34.855Z,18.87
2022-12-24T03:59:07.587Z,18.85
2022-12-24T04:01:40.337Z,18.82
2022-12-24T04:04:13.068Z,18.83
2022-12-24T04:06:45.962Z,18.79
2022-12-24T04:09:18.485Z,18.84
2022-12-24T04:11:51.168Z,18.81
2022-12-24T04:14:24.231Z,18.82
2022-12-24T04:16:56.793Z,18.83
2022-12-24T04:19:29.475Z,18.81
2022-12-24T04:22:02.023Z,18.81
2022-12-24T04:24:34.757Z,18.80
2022-12-24T04:27:07.271Z,18.82
2022-12-24T04:29:39.884Z,18.77
2022-12-24T04:32:12.478Z,18.71
2022-12-24T04:34:45.039Z,18.79
2022-12-24T04:37:17.704Z,18.79
2022-12-24T04:39:50.260Z,18.79
2022-12-24T04:42:22.831Z,18.77
2022-12-24T04:44:55.487Z,18.75
2022-12-24T04:47:28.003Z,18.78
2022-12-24T04:50:01.650Z,18.77
2022-12-24T04:52:35.297Z,18.74
2022-12-24T04:55:08.508Z,18.74
2022-12-24T04:57:41.207Z,18.79
2022-12-24T05:00:14.511Z,18.74
2022-12-24T05:02:47.269Z,18.69
2022-12-24T05:05:19.926Z,18.74
2022-12-24T05:07:52.531Z,18.73
2022-12-24T05:10:25.086Z,18.66
2022-12-24T05:12:57.775Z,18.69
2022-12-24T05:15:30.500Z,18.74
2022-12-24T05:18:03.120Z,18.69
2022-12-24T05:20:35.632Z,18.62
2022-12-24T05:23:35.118Z,18.68
2022-12-24T05:26:32.408Z,18.83
2022-12-24T05:29:07.154Z,18.72
2022-12-24T05:31:41.646Z,18.66
2022-12-24T05:34:16.509Z,18.70
2022-12-24T05:36:49.219Z,18.68
2022-12-24T05:39:21.877Z,18.69
2022-12-24T05:41:54.558Z,18.68
2022-12-24T05:44:27.226Z,18.68
2022-12-24T05:46:59.815Z,18.68
2022-12-24T05:49:32.503Z,18.65
2022-12-24T05:52:05.303Z,18.61
2022-12-24T05:54:38.032Z,18.63
2022-12-24T05:57:10.700Z,18.63
2022-12-24T05:59:43.191Z,18.61
2022-12-24T06:02:15.979Z,18.66
2022-12-24T06:04:48.864Z,18.64
2022-12-24T06:07:21.572Z,18.65
2022-12-24T06:09:54.112Z,18.59
2022-12-24T06:12:26.701Z,18.62
2022-12-24T06:14:59.257Z,18.59
2022-12-24T06:17:31.943Z,18.64
2022-12-24T06:20:05.240Z,18.63
2022-12-24T06:22:37.776Z,18.62
2022-12-24T06:25:10.312Z,18.63
2022-12-24T06:27:42.876Z,18.59
2022-12-24T06:30:18.367Z,18.61
2022-12-24T06:32:51.341Z,18.61
2022-12-24T06:35:23.941Z,18.57
2022-12-24T06:37:56.622Z,18.59
2022-12-24T06:40:29.551Z,18.55
2022-12-24T06:43:02.113Z,18.57
2022-12-24T06:45:34.619Z,18.63
2022-12-24T06:48:07.295Z,18.68
2022-12-24T06:50:40.498Z,18.73
2022-12-24T06:53:13.246Z,18.76
2022-12-24T06:55:46.246Z,18.79
2022-12-24T06:58:18.876Z,18.85
2022-12-24T07:00:51.412Z,18.89
2022-12-24T07:03:24.231Z,18.92
2022-12-24T07:05:56.980Z,19.00
2022-12-24T07:08:29.560Z,19.07
2022-12-24T07:11:02.771Z,19.13
2022-12-24T07:13:35.582Z,19.17
2022-12-24T07:16:08.450Z,19.21
2022-12-24T07:18:41.101Z,19.30
2022-12-24T07:21:13.743Z,19.26
2022-12-24T07:23:46.489Z,19.36
2022-12-24T07:26:19.197Z,19.46
2022-12-24T07:28:51.875Z,19.49
2022-12-24T07:31:24.540Z,19.50
2022-12-24T07:33:57.349Z,19.59
2022-12-24T07:36:30.399Z,19.63
2022-12-24T07:39:03.019Z,19.65
2022-12-24T07:41:41.569Z,19.72
2022-12-24T07:44:15.049Z,19.75
2022-12-24T07:46:47.650Z,19.79
2022-12-24T07:49:20.188Z,19.80
2022-12-24T07:51:52.765Z,19.85
2022-12-24T07:54:25.363Z,19.83
2022-12-24T07:56:58.042Z,19.90
2022-12-24T07:59:30.739Z,19.99
2022-12-24T08:02:03.551Z,20.01
2022-12-24T08:04:36.575Z,20.04
2022-12-24T08:07:09.227Z,20.06
2022-12-24T08:09:41.821Z,20.07
2022-12-24T08:12:14.428Z,20.09
2022-12-24T08:14:47.092Z,20.07
2022-12-24T08:17:19.665Z,20.13
2022-12-24T08:19:52.168Z,20.08
2022-12-24T08:22:24.635Z,20.06
2022-12-24T08:24:57.153Z,20.07
2022-12-24T08:27:29.851Z,20.12
2022-12-24T08:30:05.165Z,20.17
2022-12-24T08:32:37.837Z,20.13
2022-12-24T08:35:10.489Z,20.17
2022-12-24T08:37:43.154Z,20.14
2022-12-24T08:40:16.116Z,20.13
2022-12-24T08:42:48.907Z,20.13
2022-12-24T08:45:21.582Z,20.09
2022-12-24T08:47:54.272Z,20.06
2022-12-24T08:50:28.487Z,20.11
2022-12-24T08:53:01.185Z,20.10
2022-12-24T08:55:33.895Z,20.07
2022-12-24T08:58:06.581Z,20.04
2022-12-24T09:00:39.354Z,20.03
2022-12-24T09:03:16.461Z,20.01
2022-12-24T09:05:51.020Z,20.04
2022-12-24T09:08:23.549Z,20.00
2022-12-24T09:10:56.040Z,19.94
2022-12-24T09:13:29.026Z,19.93
2022-12-24T09:16:02.115Z,19.96
2022-12-24T09:18:34.908Z,19.98
2022-12-24T09:21:11.695Z,19.93
2022-12-24T09:23:47.755Z,19.90
2022-12-24T09:26:27.582Z,19.92
2022-12-24T09:29:02.970Z,19.87
2022-12-24T09:31:35.729Z,19.87
2022-12-24T09:34:08.991Z,19.87
2022-12-24T09:36:41.659Z,19.83
2022-12-24T09:39:14.947Z,19.85
2022-12-24T09:42:26.897Z,19.93
2022-12-24T09:45:31.293Z,19.96
2022-12-24T09:48:14.456Z,19.86
2022-12-24T09:51:21.005Z,19.85
2022-12-24T09:54:10.845Z,19.88
2022-12-24T09:56:48.703Z,19.87
2022-12-24T09:59:27.010Z,19.86
2022-12-24T10:02:01.047Z,19.87
2022-12-24T10:04:34.485Z,20.21
2022-12-24T10:07:42.853Z,20.07
2022-12-24T10:11:01.355Z,20.14
2022-12-24T10:14:18.461Z,20.15
2022-12-24T10:17:48.589Z,20.20
2022-12-24T10:20:43.519Z,20.26
2022-12-24T10:23:36.110Z,20.23
2022-12-24T10:26:29.722Z,20.25
2022-12-24T10:29:22.398Z,20.28
2022-12-24T10:32:07.261Z,20.26
2022-12-24T10:35:06.100Z,20.30
2022-12-24T10:37:39.388Z,20.35
2022-12-24T10:40:20.269Z,20.38
2022-12-24T10:42:52.991Z,20.41
2022-12-24T10:45:37.425Z,20.44
2022-12-24T10:48:32.302Z,20.48
2022-12-24T10:51:16.037Z,20.51
2022-12-24T10:54:26.989Z,20.58
2022-12-24T10:57:02.503Z,20.57
2022-12-24T10:59:50.563Z,20.62
2022-12-24T11:02:38.337Z,20.69
2022-12-24T11:05:31.008Z,20.78
2022-12-24T11:08:14.000Z,20.70
2022-12-24T11:11:11.205Z,20.77
2022-12-24T11:13:49.552Z,20.75
2022-12-24T11:16:35.822Z,20.76
2022-12-24T11:19:20.742Z,20.80
2022-12-24T11:22:03.063Z,20.73
2022-12-24T11:24:38.984Z,20.68
2022-12-24T11:27:40.423Z,20.84
2022-12-24T11:30:15.948Z,20.73
2022-12-24T11:33:10.035Z,20.69
2022-12-24T11:35:49.780Z,20.70
2022-12-24T11:38:27.359Z,20.69
2022-12-24T11:41:09.773Z,20.70
2022-12-24T11:43:47.235Z,20.65
2022-12-24T11:46:39.106Z,20.76
2022-12-24T11:49:11.643Z,20.65
2022-12-24T11:52:14.725Z,20.68
2022-12-24T11:55:16.486Z,20.66
2022-12-24T11:58:05.904Z,20.67
2022-12-24T12:00:41.582Z,20.58
2022-12-24T12:03:36.000Z,20.70
2022-12-24T12:06:27.768Z,20.63
2022-12-24T12:09:20.791Z,20.60
2022-12-24T12:12:09.691Z,20.65
2022-12-24T12:14:51.944Z,20.57
2022-12-24T12:17:36.273Z,20.57
2022-12-24T12:20:23.192Z,20.89
2022-12-24T12:23:08.519Z,20.57
2022-12-24T12:25:52.145Z,20.57
2022-12-24T12:28:40.323Z,20.58
2022-12-24T12:31:26.651Z,20.54
2022-12-24T12:34:18.912Z,20.52
2022-12-24T12:37:14.685Z,20.54
2022-12-24T12:39:47.798Z,20.42
2022-12-24T12:42:37.904Z,20.47
2022-12-24T12:45:52.808Z,20.57
2022-12-24T12:49:02.513Z,20.59
2022-12-24T12:51:48.574Z,20.47
2022-12-24T12:54:38.966Z,20.51
2022-12-24T12:57:18.866Z,20.43
2022-12-24T12:59:59.974Z,20.39
2022-12-24T13:03:29.957Z,20.51
2022-12-24T13:06:37.838Z,20.36
2022-12-24T13:09:48.919Z,20.38
2022-12-24T13:12:58.996Z,20.32
2022-12-24T13:15:49.851Z,20.32
2022-12-24T13:18:44.187Z,20.29
2022-12-24T13:21:30.654Z,20.33
2022-12-24T13:24:33.674Z,20.41
2022-12-24T13:27:20.902Z,20.29
2022-12-24T13:30:05.223Z,20.21
2022-12-24T13:32:53.549Z,20.23
2022-12-24T13:35:37.295Z,20.16
2022-12-24T13:38:45.205Z,20.30
2022-12-24T13:41:39.976Z,20.25
2022-12-24T13:44:13.597Z,20.13
2022-12-24T13:47:01.020Z,20.14
2022-12-24T13:49:45.147Z,20.11
2022-12-24T13:52:30.602Z,20.18
2022-12-24T13:55:13.497Z,20.07
2022-12-24T13:57:57.599Z,20.11
2022-12-24T14:00:44.815Z,20.08
2022-12-24T14:03:34.346Z,20.05
2022-12-24T14:06:41.284Z,20.19
2022-12-24T14:09:22.665Z,20.05
2022-12-24T14:12:03.980Z,20.02
2022-12-24T14:14:41.011Z,19.94
2022-12-24T14:17:19.655Z,19.98
2022-12-24T14:19:57.415Z,19.94
2022-12-24T14:22:45.975Z,19.90
2022-12-24T14:25:23.586Z,19.89
2022-12-24T14:28:07.472Z,19.86
2022-12-24T14:30:40.308Z,19.92
2022-12-24T14:33:34.222Z,19.93
2022-12-24T14:36:07.791Z,19.87
2022-12-24T14:38:44.767Z,19.84
2022-12-24T14:41:53.552Z,19.95
2022-12-24T14:45:07.456Z,19.88
2022-12-24T14:48:06.712Z,19.90
2022-12-24T14:51:22.025Z,19.84
2022-12-24T14:54:33.266Z,19.79
2022-12-24T14:57:19.313Z,19.80
2022-12-24T14:59:58.780Z,19.73
2022-12-24T15:02:51.290Z,19.78
2022-12-24T15:05:29.830Z,19.72
2022-12-24T15:08:16.236Z,19.71
2022-12-24T15:10:53.873Z,19.71
2022-12-24T15:13:41.434Z,19.78
2022-12-24T15:16:23.942Z,19.70
2022-12-24T15:19:14.667Z,19.78
2022-12-24T15:21:47.663Z,19.74
2022-12-24T15:24:44.125Z,19.82
2022-12-24T15:27:24.603Z,19.85
2022-12-24T15:29:58.290Z,19.89
2022-12-24T15:32:31.202Z,19.94
2022-12-24T15:35:04.257Z,19.92
2022-12-24T15:37:39.332Z,19.98
2022-12-24T15:40:22.322Z,20.06
2022-12-24T15:42:55.293Z,19.98
2022-12-24T15:45:35.203Z,20.07
2022-12-24T15:48:12.097Z,20.11
2022-12-24T15:50:48.564Z,20.14
2022-12-24T15:53:41.427Z,20.24
2022-12-24T15:56:38.593Z,20.29
2022-12-24T15:59:31.477Z,20.26
2022-12-24T16:02:42.151Z,20.44
2022-12-24T16:05:38.181Z,20.40
2022-12-24T16:08:13.508Z,20.32
2022-12-24T16:10:51.649Z,20.31
2022-12-24T16:13:30.412Z,20.29
2022-12-24T16:16:15.198Z,20.35
2022-12-24T16:18:59.766Z,20.33
2022-12-24T16:21:40.469Z,20.34
2022-12-24T16:24:21.573Z,20.30
2022-12-24T16:26:55.090Z,20.27
2022-12-24T16:29:27.829Z,20.30
2022-12-24T16:32:00.516Z,20.26
2022-12-24T16:34:33.447Z,20.24
2022-12-24T16:37:05.966Z,20.25
2022-12-24T16:39:38.609Z,20.22
2022-12-24T16:42:29.634Z,20.20
2022-12-24T16:45:02.385Z,20.22
2022-12-24T16:47:42.350Z,20.18
2022-12-24T16:50:17.250Z,20.16
2022-12-24T16:52:50.052Z,20.17
2022-12-24T16:55:22.764Z,20.11
2022-12-24T16:57:56.515Z,20.10
2022-12-24T17:00:30.035Z,20.10
2022-12-24T17:03:02.894Z,20.09
2022-12-24T17:05:43.666Z,20.05
2022-12-24T17:08:16.392Z,20.04
2022-12-24T17:10:52.340Z,20.03
2022-12-24T17:13:24.992Z,20.01
2022-12-24T17:15:57.499Z,19.96
2022-12-24T17:18:30.210Z,19.99
2022-12-24T17:21:04.193Z,19.96
2022-12-24T17:23:36.999Z,19.95
2022-12-24T17:26:14.982Z,19.96
2022-12-24T17:28:47.950Z,19.92
2022-12-24T17:31:21.528Z,19.93
2022-12-24T17:33:54.334Z,19.91
2022-12-24T17:36:27.259Z,19.89
2022-12-24T17:38:59.766Z,19.87
2022-12-24T17:41:32.448Z,19.87
2022-12-24T17:44:07.554Z,19.86
2022-12-24T17:46:41.471Z,19.83
2022-12-24T17:49:14.184Z,19.83
2022-12-24T17:51:46.957Z,19.82
2022-12-24T17:54:19.505Z,19.80
2022-12-24T17:56:52.012Z,19.78
2022-12-24T17:59:25.327Z,19.78
2022-12-24T18:01:58.172Z,19.76
2022-12-24T18:04:30.945Z,19.70
2022-12-24T18:07:03.615Z,19.64
2022-12-24T18:09:36.665Z,19.66
2022-12-24T18:12:09.249Z,19.63
2022-12-24T18:14:44.202Z,19.63
2022-12-24T18:17:16.792Z,19.62
2022-12-24T18:19:49.330Z,19.59
2022-12-24T18:22:21.947Z,19.59
2022-12-24T18:24:54.616Z,19.57
2022-12-24T18:27:27.168Z,19.56
2022-12-24T18:29:59.668Z,19.54
2022-12-24T18:32:32.496Z,19.48
2022-12-24T18:35:07.243Z,19.50
2022-12-24T18:37:40.760Z,19.48
2022-12-24T18:40:13.583Z,19.50
2022-12-24T18:42:46.438Z,19.46
2022-12-24T18:45:19.039Z,19.36
2022-12-24T18:47:51.515Z,19.37
2022-12-24T18:50:24.196Z,19.41
2022-12-24T18:52:56.848Z,19.39
2022-12-24T18:55:29.846Z,19.39
2022-12-24T18:58:02.488Z,19.37
2022-12-24T19:00:35.078Z,19.34
2022-12-24T19:03:08.494Z,19.33
2022-12-24T19:05:41.367Z,19.30
2022-12-24T19:08:47.270Z,19.27
2022-12-24T19:11:07.770Z,19.29
2022-12-24T19:13:40.404Z,19.26
2022-12-24T19:16:13.976Z,19.21
2022-12-24T19:18:46.603Z,19.23
2022-12-24T19:21:19.373Z,19.18
2022-12-24T19:23:52.663Z,19.18
2022-12-24T19:26:25.332Z,19.16
2022-12-24T19:28:58.119Z,19.12
2022-12-24T19:31:32.379Z,19.07
2022-12-24T19:34:05.101Z,19.11
2022-12-24T19:36:37.670Z,19.09
2022-12-24T19:39:13.498Z,19.08
2022-12-24T19:41:46.095Z,18.98
2022-12-24T19:44:18.779Z,19.05
2022-12-24T19:46:51.298Z,19.01
2022-12-24T19:49:23.966Z,19.00
2022-12-24T19:51:56.622Z,19.00
2022-12-24T19:54:29.153Z,19.00
2022-12-24T19:57:01.781Z,19.00
2022-12-24T19:59:35.213Z,18.98
2022-12-24T20:02:11.431Z,18.95
2022-12-24T20:04:44.239Z,18.97
2022-12-24T20:07:17.189Z,18.96
2022-12-24T20:09:50.003Z,18.93
2022-12-24T20:12:22.799Z,18.94
2022-12-24T20:14:56.678Z,18.89
2022-12-24T20:17:29.356Z,18.86
2022-12-24T20:20:02.016Z,18.80
2022-12-24T20:22:34.615Z,18.87
2022-12-24T20:25:07.989Z,18.89
2022-12-24T20:27:40.556Z,18.90
2022-12-24T20:30:13.609Z,18.87
2022-12-24T20:32:46.386Z,18.81
2022-12-24T20:35:19.091Z,18.81
2022-12-24T20:37:51.817Z,18.89
2022-12-24T20:40:24.392Z,18.93
2022-12-24T20:42:57.016Z,18.97
2022-12-24T20:45:29.603Z,19.00
2022-12-24T20:48:02.567Z,18.88
2022-12-24T20:50:35.248Z,18.93
2022-12-24T20:53:07.922Z,18.83
2022-12-24T20:55:41.114Z,18.93
2022-12-24T20:58:17.917Z,18.92
2022-12-24T21:00:50.676Z,18.93
2022-12-24T21:03:23.356Z,18.90
2022-12-24T21:05:56.107Z,18.90
2022-12-24T21:08:28.782Z,18.89
2022-12-24T21:11:21.046Z,18.80
2022-12-24T21:13:53.642Z,18.85
2022-12-24T21:16:26.207Z,18.84
2022-12-24T21:18:59.316Z,18.83
2022-12-24T21:21:33.678Z,18.81
2022-12-24T21:24:06.606Z,18.81
2022-12-24T21:26:39.380Z,18.78
2022-12-24T21:29:12.464Z,18.78
2022-12-24T21:31:46.252Z,18.75
2022-12-24T21:34:18.753Z,18.74
2022-12-24T21:36:52.323Z,18.73
2022-12-24T21:39:24.880Z,18.77
2022-12-24T21:41:57.794Z,18.74
2022-12-24T21:44:30.684Z,18.62
2022-12-24T21:47:04.062Z,18.71
2022-12-24T21:49:55.813Z,18.69
2022-12-24T21:52:28.460Z,18.72
2022-12-24T21:55:01.098Z,18.67
2022-12-24T21:58:00.555Z,18.60
2022-12-24T22:00:34.709Z,18.65
2022-12-24T22:03:07.435Z,19.01
2022-12-24T22:05:39.953Z,18.73
2022-12-24T22:08:30.928Z,18.75
2022-12-24T22:11:22.950Z,18.77
2022-12-24T22:13:55.578Z,18.81
2022-12-24T22:16:28.490Z,18.88
2022-12-24T22:19:01.191Z,18.92
2022-12-24T22:21:33.898Z,18.98
2022-12-24T22:24:07.681Z,19.02
2022-12-24T22:26:40.403Z,19.08
2022-12-24T22:29:14.104Z,19.05
2022-12-24T22:31:46.835Z,19.13
2022-12-24T22:34:19.708Z,19.15
2022-12-24T22:36:52.436Z,19.17
2022-12-24T22:39:25.258Z,19.26
2022-12-24T22:42:00.673Z,19.28
2022-12-24T22:44:33.413Z,19.36
2022-12-24T22:47:06.118Z,19.38
2022-12-24T22:49:38.619Z,19.42
2022-12-24T22:52:11.913Z,19.42
2022-12-24T22:54:44.855Z,19.47
2022-12-24T22:57:17.495Z,19.46
2022-12-24T22:59:50.043Z,19.48
2022-12-24T23:02:27.988Z,19.48
2022-12-24T23:05:01.590Z,19.45
2022-12-24T23:07:34.271Z,19.51
2022-12-24T23:10:07.879Z,19.48
2022-12-24T23:12:59.427Z,19.52
2022-12-24T23:15:34.086Z,19.50
2022-12-24T23:18:07.703Z,19.52
2022-12-24T23:20:46.920Z,19.52
2022-12-24T23:23:19.434Z,19.51
2022-12-24T23:25:52.098Z,19.49
2022-12-24T23:28:24.847Z,19.48
2022-12-24T23:31:00.984Z,19.50
2022-12-24T23:33:34.769Z,19.52
2022-12-24T23:36:08.843Z,19.51
2022-12-24T23:38:41.321Z,19.83
2022-12-24T23:41:18.915Z,19.49
2022-12-24T23:43:51.618Z,19.50
2022-12-24T23:46:24.453Z,19.48
2022-12-24T23:48:57.837Z,19.44
2022-12-24T23:51:30.717Z,19.46
2022-12-24T23:54:03.572Z,19.40
2022-12-24T23:56:36.377Z,19.40
2022-12-24T23:59:09.044Z,19.41
